Time;durP1;ratioP1;P1;durP2;ratioP2;P2;SDS_P1;SDS_P2;PMS_P1;PMS_P2;Temp;Humidity;BMP_temperature;BMP_pressure;BME280_temperature;BME280_humidity;BME280_pressure;Samples;Min_cycle;Max_cycle;Signal;HPM_P1;HPM_P2
2023/06/05 00:00:16;;;;;;;2.15;1.23;;;20.00;82.00;;;;;;7380889;19;20191;-78
2023/06/05 00:02:43;;;;;;;2.13;1.90;;;20.00;82.80;;;;;;7388168;19;20157;-77
2023/06/05 00:05:09;;;;;;;3.13;1.75;;;20.00;82.10;;;;;;7391850;19;20135;-78
2023/06/05 00:07:37;;;;;;;2.63;1.70;;;19.80;82.70;;;;;;7392378;19;20126;-77
2023/06/05 00:10:06;;;;;;;1.98;1.50;;;19.80;82.90;;;;;;7390838;19;20154;-77
2023/06/05 00:12:32;;;;;;;1.85;1.33;;;19.70;83.00;;;;;;7394843;19;20142;-77
2023/06/05 00:14:58;;;;;;;3.03;1.48;;;19.80;82.40;;;;;;7391357;19;20532;-79
2023/06/05 00:17:24;;;;;;;1.38;1.13;;;19.60;83.30;;;;;;7392872;19;20158;-77
2023/06/05 00:19:50;;;;;;;2.75;1.55;;;19.70;83.30;;;;;;7383257;19;20135;-77
2023/06/05 00:22:20;;;;;;;2.30;1.55;;;19.80;83.30;;;;;;7393589;19;20134;-80
2023/06/05 00:24:46;;;;;;;2.28;1.48;;;19.70;83.70;;;;;;7391974;19;20485;-79
2023/06/05 00:27:12;;;;;;;2.50;1.48;;;19.70;83.30;;;;;;7390217;19;20142;-78
2023/06/05 00:29:37;;;;;;;2.95;1.63;;;19.60;83.50;;;;;;7391173;19;20562;-78
2023/06/05 00:32:03;;;;;;;3.08;1.63;;;19.60;83.70;;;;;;7391372;19;20152;-77
2023/06/05 00:34:29;;;;;;;1.98;1.33;;;19.20;83.90;;;;;;7391402;19;20135;-77
2023/06/05 00:36:55;;;;;;;2.50;1.58;;;19.30;84.80;;;;;;7391890;19;20235;-78
2023/06/05 00:39:21;;;;;;;2.35;1.55;;;19.50;84.40;;;;;;7388932;19;20631;-77
2023/06/05 00:41:47;;;;;;;3.58;1.58;;;19.50;84.00;;;;;;7391400;19;20707;-78
2023/06/05 00:44:12;;;;;;;1.75;1.50;;;19.30;84.20;;;;;;7389215;19;20155;-77
2023/06/05 00:46:39;;;;;;;4.13;1.70;;;18.90;85.00;;;;;;7392525;19;20131;-77
2023/06/05 00:49:06;;;;;;;2.35;1.48;;;19.00;85.90;;;;;;7391843;19;20887;-76
2023/06/05 00:51:33;;;;;;;1.88;1.52;;;19.10;85.40;;;;;;7390636;19;20138;-76
2023/06/05 00:53:59;;;;;;;2.63;1.33;;;19.30;85.10;;;;;;7390789;19;20142;-78
2023/06/05 00:56:25;;;;;;;1.80;1.35;;;19.40;84.50;;;;;;7391289;19;20131;-78
2023/06/05 00:58:53;;;;;;;2.45;1.67;;;19.40;85.40;;;;;;7389613;19;20143;-77
2023/06/05 01:01:20;;;;;;;2.28;1.50;;;19.20;85.00;;;;;;7390907;19;20154;-77
2023/06/05 01:03:47;;;;;;;2.80;1.48;;;19.30;85.80;;;;;;7390937;19;20134;-78
2023/06/05 01:06:16;;;;;;;2.50;1.50;;;19.30;85.60;;;;;;7390410;19;20146;-77
2023/06/05 01:08:42;;;;;;;1.95;1.20;;;19.20;85.50;;;;;;7389738;19;20154;-79
2023/06/05 01:11:55;;;;;;;2.55;1.73;;;19.30;85.80;;;;;;7390442;19;20157;-79
2023/06/05 01:14:22;;;;;;;2.53;1.38;;;19.30;86.20;;;;;;7385593;19;20553;-77
2023/06/05 01:16:56;;;;;;;1.90;1.48;;;18.90;85.90;;;;;;7389940;19;20138;-77
2023/06/05 01:19:28;;;;;;;2.17;1.45;;;19.00;88.60;;;;;;7389053;19;20512;-78
2023/06/05 01:21:58;;;;;;;2.85;1.77;;;19.10;87.30;;;;;;7389179;19;20201;-79
2023/06/05 01:24:27;;;;;;;2.58;1.30;;;19.20;87.00;;;;;;7389982;19;20138;-78
2023/06/05 01:27:00;;;;;;;1.92;1.42;;;19.10;87.70;;;;;;7391778;19;20139;-78
2023/06/05 01:29:52;;;;;;;1.88;1.33;;;19.10;87.70;;;;;;7388195;19;20571;-78
2023/06/05 01:32:29;;;;;;;1.48;1.30;;;19.10;88.10;;;;;;7389905;19;20163;-78
2023/06/05 01:34:58;;;;;;;1.80;1.60;;;19.10;88.10;;;;;;7391441;19;20713;-77
2023/06/05 01:37:26;;;;;;;2.17;1.52;;;19.10;88.40;;;;;;7390808;19;20158;-77
2023/06/05 01:39:55;;;;;;;4.10;1.88;;;19.00;88.60;;;;;;7387689;19;20154;-77
2023/06/05 01:42:24;;;;;;;1.85;1.52;;;19.00;88.80;;;;;;7387841;19;20175;-78
2023/06/05 01:44:50;;;;;;;2.60;1.50;;;19.00;88.80;;;;;;7389823;19;20131;-78
2023/06/05 01:47:16;;;;;;;2.20;1.65;;;18.90;89.40;;;;;;7392677;19;20138;-78
2023/06/05 01:49:43;;;;;;;1.83;1.35;;;18.90;89.40;;;;;;7389338;19;20640;-78
2023/06/05 01:52:09;;;;;;;2.35;1.50;;;18.90;89.80;;;;;;7389312;19;20226;-78
2023/06/05 01:54:35;;;;;;;2.13;1.55;;;18.90;89.80;;;;;;7388426;19;20138;-78
2023/06/05 01:57:02;;;;;;;1.38;1.27;;;18.90;89.80;;;;;;7388174;19;20138;-78
2023/06/05 01:59:28;;;;;;;2.85;1.42;;;18.80;89.90;;;;;;7388952;19;20225;-79
2023/06/05 02:01:54;;;;;;;1.83;1.50;;;18.80;90.10;;;;;;7390698;19;20134;-78
2023/06/05 02:04:20;;;;;;;1.40;1.30;;;18.80;90.00;;;;;;7390232;19;20136;-77
2023/06/05 02:06:46;;;;;;;2.40;1.40;;;18.80;90.00;;;;;;7384623;19;20480;-78
2023/06/05 02:09:12;;;;;;;1.60;1.50;;;18.80;90.30;;;;;;7390486;19;20609;-78
2023/06/05 02:11:39;;;;;;;1.88;1.30;;;18.90;90.40;;;;;;7389367;19;20146;-78
2023/06/05 02:14:12;;;;;;;4.65;1.42;;;18.70;90.70;;;;;;7388792;19;20130;-78
2023/06/05 02:16:38;;;;;;;2.20;1.52;;;18.70;90.70;;;;;;7388959;19;20143;-77
2023/06/05 02:19:04;;;;;;;1.85;1.25;;;18.70;90.50;;;;;;7388877;19;20151;-78
2023/06/05 02:21:33;;;;;;;3.17;1.70;;;18.60;90.50;;;;;;7391174;19;20641;-78
2023/06/05 02:24:00;;;;;;;2.42;1.40;;;18.50;90.80;;;;;;7388636;19;20143;-78
2023/06/05 02:26:27;;;;;;;1.73;1.42;;;18.60;90.70;;;;;;7386549;19;20182;-78
2023/06/05 02:28:53;;;;;;;3.15;1.40;;;18.50;90.70;;;;;;7387885;19;20572;-79
2023/06/05 02:31:24;;;;;;;2.50;1.35;;;18.50;91.20;;;;;;7390275;19;20595;-78
2023/06/05 02:33:55;;;;;;;2.50;1.70;;;18.50;91.20;;;;;;7387184;19;20161;-79
2023/06/05 02:36:23;;;;;;;3.42;1.70;;;18.40;91.40;;;;;;7388785;19;20172;-79
2023/06/05 02:38:49;;;;;;;3.03;1.98;;;18.50;91.40;;;;;;7388497;19;20149;-79
2023/06/05 02:41:19;;;;;;;2.63;1.58;;;18.50;91.60;;;;;;7386879;19;20468;-79
2023/06/05 02:43:45;;;;;;;3.28;1.60;;;18.40;91.60;;;;;;7384467;19;20154;-78
2023/06/05 02:46:11;;;;;;;1.77;1.50;;;18.40;91.80;;;;;;7388355;19;20188;-78
2023/06/05 02:48:37;;;;;;;2.67;1.40;;;18.30;92.00;;;;;;7389454;19;20142;-79
2023/06/05 02:51:03;;;;;;;1.63;1.30;;;18.30;92.20;;;;;;7387000;19;20146;-79
2023/06/05 02:53:29;;;;;;;2.30;1.70;;;18.20;92.00;;;;;;7390016;19;20135;-78
2023/06/05 02:55:55;;;;;;;2.72;1.70;;;18.20;92.40;;;;;;7390022;19;20549;-78
2023/06/05 02:58:21;;;;;;;2.83;1.95;;;18.20;92.40;;;;;;7388416;19;20131;-78
2023/06/05 03:00:49;;;;;;;1.45;1.15;;;18.20;92.40;;;;;;7384014;19;20135;-78
2023/06/05 03:03:16;;;;;;;2.28;1.30;;;18.10;92.30;;;;;;7387273;19;20138;-77
2023/06/05 03:05:44;;;;;;;3.13;1.55;;;18.00;92.80;;;;;;7388198;19;20555;-78
2023/06/05 03:08:10;;;;;;;2.60;1.70;;;17.90;93.00;;;;;;7387444;19;20481;-78
2023/06/05 03:10:36;;;;;;;3.13;2.03;;;18.00;93.10;;;;;;7389158;19;20205;-79
2023/06/05 03:13:02;;;;;;;2.47;1.45;;;18.20;93.10;;;;;;7387412;19;20135;-79
2023/06/05 03:15:32;;;;;;;2.35;1.50;;;18.00;93.40;;;;;;7386850;19;21382;-79
2023/06/05 03:17:57;;;;;;;2.63;1.65;;;18.00;93.40;;;;;;7389615;19;20146;-79
2023/06/05 03:20:23;;;;;;;2.38;1.50;;;18.00;93.50;;;;;;7383588;19;20150;-79
2023/06/05 03:22:49;;;;;;;2.63;1.55;;;17.80;93.50;;;;;;7387794;19;20150;-78
2023/06/05 03:25:15;;;;;;;4.72;1.58;;;17.90;93.70;;;;;;7386612;19;20605;-78
2023/06/05 03:27:41;;;;;;;2.53;1.58;;;18.00;93.70;;;;;;7386333;19;20135;-78
2023/06/05 03:30:08;;;;;;;2.28;1.40;;;18.00;93.80;;;;;;7386502;19;20563;-79
2023/06/05 03:32:34;;;;;;;2.05;1.45;;;18.00;94.00;;;;;;7387503;19;20143;-78
2023/06/05 03:35:00;;;;;;;1.25;1.00;;;18.00;94.10;;;;;;7386274;19;20481;-79
2023/06/05 03:37:26;;;;;;;2.88;1.45;;;17.90;94.30;;;;;;7390456;19;20569;-80
2023/06/05 03:39:52;;;;;;;4.65;1.40;;;17.90;94.00;;;;;;7390706;19;20250;-79
2023/06/05 03:42:17;;;;;;;2.00;1.40;;;17.90;94.30;;;;;;7391009;19;20146;-79
2023/06/05 03:44:43;;;;;;;2.72;1.73;;;17.60;94.70;;;;;;7393239;19;20164;-78
2023/06/05 03:47:09;;;;;;;3.38;1.50;;;17.60;94.90;;;;;;7394231;19;20138;-77
2023/06/05 03:49:35;;;;;;;3.15;1.63;;;17.50;95.00;;;;;;7393338;19;20138;-77
2023/06/05 03:52:02;;;;;;;3.67;1.73;;;17.60;95.20;;;;;;7393180;19;20138;-78
2023/06/05 03:54:28;;;;;;;4.38;1.70;;;17.70;95.60;;;;;;7396316;19;20135;-78
2023/06/05 03:57:00;;;;;;;3.05;1.30;;;17.50;95.50;;;;;;7393231;19;20159;-78
2023/06/05 03:59:27;;;;;;;2.35;1.25;;;17.60;95.80;;;;;;7394623;19;20238;-78
2023/06/05 04:01:55;;;;;;;3.03;1.60;;;17.70;95.90;;;;;;7394000;19;20127;-78
2023/06/05 04:04:22;;;;;;;3.70;1.58;;;17.80;95.80;;;;;;7394201;19;20492;-78
2023/06/05 04:06:48;;;;;;;3.30;1.58;;;17.70;96.00;;;;;;7393312;19;20138;-78
2023/06/05 04:09:14;;;;;;;2.83;1.55;;;17.80;95.90;;;;;;7394391;19;20448;-78
2023/06/05 04:11:41;;;;;;;4.43;2.63;;;17.90;96.10;;;;;;7393775;19;20139;-78
2023/06/05 04:14:09;;;;;;;2.38;1.60;;;17.90;95.90;;;;;;7394776;19;20242;-77
2023/06/05 04:16:38;;;;;;;1.98;1.35;;;17.80;95.80;;;;;;7393411;19;20131;-78
2023/06/05 04:19:09;;;;;;;3.20;1.70;;;17.80;96.00;;;;;;7393227;19;20146;-78
2023/06/05 04:21:37;;;;;;;2.45;1.60;;;17.80;96.20;;;;;;7391542;19;20176;-78
2023/06/05 04:24:06;;;;;;;2.97;1.73;;;17.80;96.30;;;;;;7394642;19;20134;-77
2023/06/05 04:26:41;;;;;;;2.42;1.73;;;17.80;96.40;;;;;;7396938;19;20131;-78
2023/06/05 04:29:15;;;;;;;4.13;1.77;;;17.70;96.80;;;;;;7392838;19;20173;-79
2023/06/05 04:31:42;;;;;;;4.18;2.10;;;17.70;97.20;;;;;;7393665;19;20142;-78
2023/06/05 04:34:08;;;;;;;1.92;1.48;;;17.60;97.80;;;;;;7393342;19;20178;-79
2023/06/05 04:36:34;;;;;;;2.38;1.75;;;17.70;98.10;;;;;;7396288;19;20222;-79
2023/06/05 04:39:03;;;;;;;5.47;2.00;;;17.60;98.30;;;;;;7393975;19;20173;-78
2023/06/05 04:41:32;;;;;;;2.33;1.88;;;17.70;98.80;;;;;;7397194;19;20161;-78
2023/06/05 04:43:59;;;;;;;3.25;1.85;;;17.70;98.60;;;;;;7395006;19;20151;-80
2023/06/05 04:46:26;;;;;;;4.10;1.95;;;17.80;98.80;;;;;;7400429;19;20135;-78
2023/06/05 04:48:55;;;;;;;3.45;1.88;;;17.80;99.10;;;;;;7403199;19;21662;-77
2023/06/05 04:51:24;;;;;;;2.97;1.85;;;17.80;98.80;;;;;;7407809;19;20242;-79
2023/06/05 04:53:52;;;;;;;2.50;1.63;;;17.90;98.40;;;;;;7409278;19;20144;-78
2023/06/05 04:56:20;;;;;;;4.90;2.33;;;18.00;98.30;;;;;;7407511;19;20131;-79
2023/06/05 04:58:47;;;;;;;2.80;2.05;;;18.00;98.00;;;;;;7407692;19;20154;-77
2023/06/05 05:01:13;;;;;;;3.17;2.13;;;17.70;98.20;;;;;;7408269;19;20245;-78
2023/06/05 05:03:42;;;;;;;4.15;2.00;;;17.60;99.00;;;;;;7407149;19;20557;-80
2023/06/05 05:06:09;;;;;;;2.95;2.05;;;17.60;99.00;;;;;;7408797;19;20525;-80
2023/06/05 05:08:36;;;;;;;2.95;1.88;;;17.80;98.90;;;;;;7403252;19;20143;-80
2023/06/05 05:11:02;;;;;;;3.60;1.73;;;17.80;98.40;;;;;;7396878;19;20131;-79
2023/06/05 05:13:28;;;;;;;3.42;1.92;;;17.90;98.50;;;;;;7397132;19;20134;-80
2023/06/05 05:15:54;;;;;;;2.55;1.60;;;17.90;97.80;;;;;;7394316;19;20158;-80
2023/06/05 05:18:20;;;;;;;3.17;1.85;;;17.90;98.00;;;;;;7393669;19;20822;-80
2023/06/05 05:20:46;;;;;;;3.95;2.53;;;17.90;97.60;;;;;;7389390;19;20142;-81
2023/06/05 05:23:13;;;;;;;3.28;2.08;;;17.90;98.00;;;;;;7392280;19;20515;-81
2023/06/05 05:25:38;;;;;;;1.80;1.60;;;18.10;98.10;;;;;;7391345;19;20154;-79
2023/06/05 05:28:04;;;;;;;3.53;1.70;;;17.80;97.00;;;;;;7393280;19;20476;-78
2023/06/05 05:30:30;;;;;;;2.40;1.58;;;17.80;97.20;;;;;;7386187;19;20134;-78
2023/06/05 05:32:56;;;;;;;2.85;1.75;;;18.00;96.90;;;;;;7387280;19;20198;-80
2023/06/05 05:35:22;;;;;;;3.35;1.80;;;18.00;97.50;;;;;;7390135;19;20493;-79
2023/06/05 05:37:48;;;;;;;1.45;1.23;;;18.20;96.50;;;;;;7387586;19;20138;-79
2023/06/05 05:40:14;;;;;;;3.38;1.75;;;18.20;96.10;;;;;;7383997;19;20626;-79
2023/06/05 05:42:41;;;;;;;2.35;1.60;;;18.20;96.20;;;;;;7386544;19;20166;-78
2023/06/05 05:45:08;;;;;;;2.77;1.70;;;18.20;96.40;;;;;;7387527;19;20515;-79
2023/06/05 05:47:33;;;;;;;2.35;1.70;;;18.20;96.10;;;;;;7388980;19;20153;-78
2023/06/05 05:49:59;;;;;;;3.00;1.60;;;18.20;96.40;;;;;;7384604;19;20158;-78
2023/06/05 05:52:25;;;;;;;3.40;1.30;;;18.30;96.30;;;;;;7390571;19;20502;-79
2023/06/05 05:54:52;;;;;;;3.25;1.90;;;18.30;96.40;;;;;;7387583;19;20161;-77
2023/06/05 05:57:18;;;;;;;4.43;1.90;;;18.40;96.20;;;;;;7388261;19;20242;-78
2023/06/05 05:59:47;;;;;;;2.60;1.50;;;18.50;95.80;;;;;;7383611;19;20147;-79
2023/06/05 06:02:12;;;;;;;8.73;2.42;;;18.60;95.70;;;;;;7388844;19;20449;-78
2023/06/05 06:04:40;;;;;;;2.88;2.25;;;18.60;95.50;;;;;;7387199;19;20202;-78
2023/06/05 06:07:06;;;;;;;3.90;2.20;;;18.50;95.40;;;;;;7389219;19;20441;-78
2023/06/05 06:09:32;;;;;;;2.78;1.70;;;18.40;95.90;;;;;;7387890;19;20138;-78
2023/06/05 06:12:02;;;;;;;4.43;2.10;;;18.90;95.30;;;;;;7392941;19;20142;-79
2023/06/05 06:14:31;;;;;;;3.95;1.83;;;20.00;93.60;;;;;;7389064;19;20441;-76
2023/06/05 06:16:58;;;;;;;2.28;1.85;;;20.40;92.40;;;;;;7386543;19;20139;-78
2023/06/05 06:19:25;;;;;;;2.60;1.80;;;21.00;91.60;;;;;;7387961;19;20165;-77
2023/06/05 06:21:51;;;;;;;5.13;2.45;;;22.30;89.40;;;;;;7387125;19;20187;-78
2023/06/05 06:24:20;;;;;;;4.82;2.50;;;23.80;85.00;;;;;;7390433;19;20142;-77
2023/06/05 06:26:46;;;;;;;3.67;2.10;;;24.70;81.90;;;;;;7388696;19;20613;-79
2023/06/05 06:29:15;;;;;;;4.18;2.00;;;25.50;80.00;;;;;;7385840;19;20161;-79
2023/06/05 06:31:42;;;;;;;2.55;1.83;;;26.30;77.20;;;;;;7388544;19;20142;-80
2023/06/05 06:34:09;;;;;;;4.63;1.80;;;26.80;74.90;;;;;;7389522;19;20139;-79
2023/06/05 06:36:43;;;;;;;2.97;1.88;;;27.20;74.00;;;;;;7387950;19;20156;-78
2023/06/05 06:39:25;;;;;;;3.42;2.05;;;27.80;72.20;;;;;;7383771;19;20619;-80
2023/06/05 06:41:54;;;;;;;3.47;1.98;;;28.70;70.30;;;;;;7387263;19;20181;-78
2023/06/05 06:44:20;;;;;;;4.85;2.05;;;29.10;67.70;;;;;;7387735;19;20500;-78
2023/06/05 06:46:46;;;;;;;4.32;2.00;;;29.40;66.50;;;;;;7387339;19;20169;-76
2023/06/05 06:49:11;;;;;;;3.72;2.38;;;29.30;65.80;;;;;;7387497;19;20131;-77
2023/06/05 06:51:37;;;;;;;4.90;2.35;;;29.40;65.10;;;;;;7386233;19;20147;-75
2023/06/05 06:54:03;;;;;;;3.22;2.20;;;29.10;64.70;;;;;;7388049;19;20142;-76
2023/06/05 06:56:28;;;;;;;3.53;2.13;;;28.70;64.90;;;;;;7388141;19;20241;-77
2023/06/05 06:58:55;;;;;;;3.28;1.95;;;28.00;65.80;;;;;;7385759;19;20461;-78
2023/06/05 07:01:21;;;;;;;5.22;2.17;;;27.70;66.90;;;;;;7386940;19;20123;-77
2023/06/05 07:03:47;;;;;;;2.35;1.92;;;27.70;66.40;;;;;;7389691;19;20137;-76
2023/06/05 07:06:14;;;;;;;5.03;1.98;;;27.40;66.20;;;;;;7388410;19;20168;-76
2023/06/05 07:08:40;;;;;;;2.90;1.67;;;26.80;67.20;;;;;;7386972;19;20152;-76
2023/06/05 07:11:05;;;;;;;4.00;2.00;;;26.40;68.00;;;;;;7386443;19;20213;-77
2023/06/05 07:13:31;;;;;;;1.88;1.55;;;26.50;68.30;;;;;;7385078;19;20488;-78
2023/06/05 07:15:57;;;;;;;4.50;2.00;;;26.70;68.00;;;;;;7384925;19;20126;-79
2023/06/05 07:18:23;;;;;;;2.80;2.00;;;26.20;68.80;;;;;;7386511;19;20150;-78
2023/06/05 07:20:49;;;;;;;3.55;1.77;;;25.80;69.70;;;;;;7383279;19;20141;-77
2023/06/05 07:23:15;;;;;;;2.45;1.92;;;25.90;69.80;;;;;;7386650;19;20784;-79
2023/06/05 07:25:41;;;;;;;5.43;2.28;;;25.90;69.90;;;;;;7380128;19;20136;-79
2023/06/05 07:28:13;;;;;;;4.43;2.35;;;25.80;70.50;;;;;;7385982;19;20590;-78
2023/06/05 07:30:43;;;;;;;2.83;2.08;;;25.80;71.20;;;;;;7384323;19;20222;-88
2023/06/05 07:33:09;;;;;;;3.08;1.80;;;26.00;70.60;;;;;;7374546;19;20615;-87
2023/06/05 07:35:35;;;;;;;4.90;2.40;;;26.00;70.60;;;;;;7388778;19;20159;-86
2023/06/05 07:38:01;;;;;;;4.63;2.60;;;25.70;71.00;;;;;;7390074;19;20150;-86
2023/06/05 07:40:26;;;;;;;3.63;2.05;;;25.60;71.70;;;;;;7391723;19;20126;-85
2023/06/05 07:42:52;;;;;;;3.10;2.22;;;25.60;72.00;;;;;;7387757;19;20142;-84
2023/06/05 07:45:18;;;;;;;3.42;2.08;;;25.50;72.40;;;;;;7390956;19;20629;-90
2023/06/05 07:47:43;;;;;;;4.28;2.42;;;25.10;73.20;;;;;;7387377;19;20142;-88
2023/06/05 07:50:10;;;;;;;3.47;2.10;;;24.90;76.10;;;;;;7387811;19;20650;-85
2023/06/05 07:52:37;;;;;;;3.45;2.42;;;25.30;75.00;;;;;;7389729;19;20137;-85
2023/06/05 07:55:04;;;;;;;3.75;1.88;;;25.60;74.10;;;;;;7390333;19;20873;-84
2023/06/05 07:57:30;;;;;;;2.90;2.40;;;25.60;73.80;;;;;;7390243;19;20146;-86
2023/06/05 07:59:57;;;;;;;4.45;2.78;;;25.50;74.80;;;;;;7386826;19;20141;-85
2023/06/05 08:02:23;;;;;;;6.32;3.13;;;25.60;74.90;;;;;;7386532;19;20138;-82
2023/06/05 08:04:49;;;;;;;4.35;2.75;;;26.20;74.50;;;;;;7387340;19;20135;-89
2023/06/05 08:07:15;;;;;;;4.28;2.30;;;26.80;73.20;;;;;;7387528;19;20135;-88
2023/06/05 08:09:41;;;;;;;5.25;2.53;;;26.20;73.60;;;;;;7386563;19;20131;-87
2023/06/05 08:12:07;;;;;;;3.30;2.30;;;26.30;74.20;;;;;;7389681;19;20131;-85
2023/06/05 08:14:34;;;;;;;3.70;2.63;;;26.10;74.20;;;;;;7388569;19;20573;-87
2023/06/05 08:17:00;;;;;;;5.03;2.88;;;26.00;74.80;;;;;;7386251;19;20238;-85
2023/06/05 08:19:26;;;;;;;2.60;2.30;;;25.70;75.60;;;;;;7389050;19;20130;-87
2023/06/05 08:21:56;;;;;;;4.28;2.65;;;26.10;75.60;;;;;;7387505;19;20469;-87
2023/06/05 08:24:22;;;;;;;3.95;2.55;;;26.30;76.70;;;;;;7391873;19;20150;-87
2023/06/05 08:26:48;;;;;;;4.03;3.10;;;26.40;76.80;;;;;;7395718;19;20162;-85
2023/06/05 08:29:14;;;;;;;5.10;3.50;;;26.60;76.90;;;;;;7392556;19;20135;-86
2023/06/05 08:31:39;;;;;;;3.42;2.63;;;26.90;76.40;;;;;;7395817;19;20131;-86
2023/06/05 08:34:05;;;;;;;5.28;2.88;;;26.70;76.50;;;;;;7392649;19;20146;-86
2023/06/05 08:36:34;;;;;;;3.38;2.40;;;26.50;76.80;;;;;;7395421;19;20119;-88
2023/06/05 08:39:00;;;;;;;3.88;2.22;;;26.20;77.40;;;;;;7393839;19;20159;-89
2023/06/05 08:41:26;;;;;;;5.13;2.60;;;26.00;78.00;;;;;;7393916;19;20138;-87
2023/06/05 08:43:52;;;;;;;4.57;2.75;;;26.00;78.70;;;;;;7389514;19;20151;-87
2023/06/05 08:46:18;;;;;;;4.93;2.42;;;26.00;78.90;;;;;;7398811;19;20131;-87
2023/06/05 08:48:46;;;;;;;9.93;2.83;;;26.00;79.30;;;;;;7393057;19;20479;-87
2023/06/05 08:51:14;;;;;;;3.10;2.60;;;25.90;79.50;;;;;;7393093;19;20185;-86
2023/06/05 08:53:42;;;;;;;5.03;2.60;;;25.90;80.00;;;;;;7390928;19;20166;-87
2023/06/05 08:56:08;;;;;;;4.22;2.50;;;26.00;80.20;;;;;;7392328;19;20134;-85
2023/06/05 08:58:36;;;;;;;3.88;2.70;;;25.90;80.70;;;;;;7394291;19;20173;-86
2023/06/05 09:01:02;;;;;;;3.13;2.40;;;25.70;81.90;;;;;;7393176;19;20733;-83
2023/06/05 09:03:28;;;;;;;5.93;2.40;;;25.50;82.00;;;;;;7396376;19;20135;-84
2023/06/05 09:05:54;;;;;;;3.42;2.42;;;25.60;82.00;;;;;;7391503;19;20161;-87
2023/06/05 09:08:32;;;;;;;3.97;2.75;;;25.50;82.40;;;;;;7391144;19;20135;-86
2023/06/05 09:11:20;;;;;;;4.70;2.67;;;25.30;83.10;;;;;;7386608;19;20138;-87
2023/06/05 09:13:46;;;;;;;4.60;2.78;;;25.30;83.80;;;;;;7389595;19;20146;-87
2023/06/05 09:16:12;;;;;;;4.10;2.67;;;25.10;84.00;;;;;;7390726;19;20194;-86
2023/06/05 09:18:58;;;;;;;3.38;2.97;;;25.10;84.50;;;;;;7388003;19;20150;-88
2023/06/05 09:21:30;;;;;;;5.55;3.40;;;25.20;84.00;;;;;;7391096;19;20233;-86
2023/06/05 09:24:16;;;;;;;3.92;2.90;;;25.00;84.70;;;;;;7399112;19;20142;-88
2023/06/05 09:26:56;;;;;;;2.97;2.60;;;24.90;85.40;;;;;;7397095;19;20126;-88
2023/06/05 09:29:33;;;;;;;4.25;3.00;;;24.80;86.30;;;;;;7393399;19;20152;-86
2023/06/05 09:32:15;;;;;;;4.07;2.55;;;25.00;86.10;;;;;;7394448;19;20138;-87
2023/06/05 09:34:41;;;;;;;3.25;2.55;;;25.20;86.10;;;;;;7392775;19;20920;-86
2023/06/05 09:37:09;;;;;;;3.88;2.95;;;25.30;85.30;;;;;;7392609;19;20157;-87
2023/06/05 09:39:36;;;;;;;3.42;2.40;;;25.10;85.80;;;;;;7391589;19;20145;-86
2023/06/05 09:42:02;;;;;;;3.63;2.55;;;25.20;86.10;;;;;;7392103;19;20163;-83
2023/06/05 09:44:30;;;;;;;3.88;2.90;;;25.30;86.50;;;;;;7391232;19;20197;-83
2023/06/05 09:47:08;;;;;;;5.90;3.15;;;25.40;86.20;;;;;;7390028;19;20138;-83
2023/06/05 09:49:40;;;;;;;3.70;2.63;;;25.30;86.70;;;;;;7389566;19;20128;-85
2023/06/05 09:52:08;;;;;;;5.93;2.50;;;25.30;87.20;;;;;;7387500;19;20488;-78
2023/06/05 09:54:36;;;;;;;4.07;2.97;;;25.40;88.20;;;;;;7392320;19;20138;-87
2023/06/05 09:57:04;;;;;;;3.53;2.58;;;25.60;87.90;;;;;;7389135;19;20756;-88
2023/06/05 09:59:34;;;;;;;3.90;3.08;;;25.70;87.60;;;;;;7392448;19;20164;-90
2023/06/05 10:02:04;;;;;;;4.63;2.95;;;25.80;86.40;;;;;;7391341;19;20127;-84
2023/06/05 10:04:37;;;;;;;3.42;3.00;;;26.10;85.90;;;;;;7390096;19;20138;-84
2023/06/05 10:07:04;;;;;;;2.88;2.40;;;26.00;83.80;;;;;;7389168;19;20131;-79
2023/06/05 10:09:33;;;;;;;5.05;2.80;;;25.90;84.60;;;;;;7389847;19;20138;-83
2023/06/05 10:11:59;;;;;;;3.88;2.83;;;26.00;83.40;;;;;;7394091;19;20141;-81
2023/06/05 10:14:25;;;;;;;5.28;3.17;;;25.80;82.70;;;;;;7388849;19;20135;-80
2023/06/05 10:16:52;;;;;;;4.20;3.15;;;25.80;82.70;;;;;;7387948;19;20123;-82
2023/06/05 10:19:20;;;;;;;3.30;2.70;;;25.90;82.30;;;;;;7390032;19;20138;-80
2023/06/05 10:21:48;;;;;;;4.35;2.58;;;26.00;81.50;;;;;;7389305;19;20141;-79
2023/06/05 10:24:31;;;;;;;4.63;2.88;;;26.00;81.20;;;;;;7390797;19;20475;-80
2023/06/05 10:27:42;;;;;;;3.30;2.80;;;26.20;81.10;;;;;;7389291;19;20130;-80
2023/06/05 10:30:46;;;;;;;3.83;2.92;;;26.30;79.40;;;;;;7387974;19;20146;-78
2023/06/05 10:33:37;;;;;;;6.18;3.03;;;26.30;76.20;;;;;;7387310;19;20678;-79
2023/06/05 10:36:24;;;;;;;3.55;2.42;;;26.30;76.00;;;;;;7389702;19;20186;-77
2023/06/05 10:38:51;;;;;;;5.70;2.72;;;26.20;74.80;;;;;;7388178;19;20814;-79
2023/06/05 10:41:18;;;;;;;2.65;2.10;;;26.10;75.10;;;;;;7389013;19;20126;-78
2023/06/05 10:43:55;;;;;;;3.55;2.50;;;26.00;75.40;;;;;;7383395;19;20147;-78
2023/06/05 10:46:33;;;;;;;2.78;2.08;;;26.00;75.30;;;;;;7388311;19;20153;-80
2023/06/05 10:49:21;;;;;;;3.00;2.30;;;26.00;74.80;;;;;;7386088;19;20135;-80
2023/06/05 10:51:49;;;;;;;4.25;2.80;;;26.20;74.60;;;;;;7393286;19;20210;-81
2023/06/05 10:54:24;;;;;;;3.83;2.55;;;26.30;73.80;;;;;;7393472;19;20473;-83
2023/06/05 10:57:05;;;;;;;4.10;2.30;;;26.40;72.20;;;;;;7385137;19;20137;-83
2023/06/05 10:59:39;;;;;;;3.83;2.58;;;26.30;71.70;;;;;;7388411;19;20143;-82
2023/06/05 11:02:08;;;;;;;3.28;2.50;;;26.30;72.30;;;;;;7388451;19;20222;-82
2023/06/05 11:04:46;;;;;;;4.90;2.22;;;26.30;71.60;;;;;;7387699;19;20158;-82
2023/06/05 11:07:22;;;;;;;3.22;2.33;;;26.30;71.70;;;;;;7389011;19;20148;-82
2023/06/05 11:10:03;;;;;;;5.22;2.72;;;26.30;71.90;;;;;;7386665;19;20134;-81
2023/06/05 11:12:51;;;;;;;3.58;2.22;;;26.20;70.50;;;;;;7385867;19;20138;-79
2023/06/05 11:15:36;;;;;;;3.17;2.03;;;26.30;70.60;;;;;;7385900;19;20150;-83
2023/06/05 11:18:31;;;;;;;3.05;2.20;;;26.20;70.60;;;;;;7383715;19;20134;-80
2023/06/05 11:20:58;;;;;;;2.55;2.00;;;26.10;71.20;;;;;;7382094;19;20150;-81
2023/06/05 11:23:28;;;;;;;3.53;2.70;;;26.20;70.70;;;;;;7386582;19;20188;-83
2023/06/05 11:25:56;;;;;;;2.50;2.22;;;26.20;71.10;;;;;;7387853;19;20150;-83
2023/06/05 11:28:42;;;;;;;3.08;2.25;;;26.30;70.80;;;;;;7389841;19;20168;-83
2023/06/05 11:31:09;;;;;;;3.25;2.22;;;26.40;70.40;;;;;;7385292;19;20157;-85
2023/06/05 11:33:35;;;;;;;2.95;2.20;;;26.30;69.60;;;;;;7387247;19;20232;-83
2023/06/05 11:36:03;;;;;;;6.50;2.60;;;26.40;70.20;;;;;;7384798;19;21677;-83
2023/06/05 11:38:29;;;;;;;2.83;2.13;;;26.50;70.40;;;;;;7385997;19;20131;-81
2023/06/05 11:40:55;;;;;;;3.60;2.35;;;26.50;69.80;;;;;;7386420;19;20142;-81
2023/06/05 11:43:22;;;;;;;2.50;2.30;;;26.60;69.60;;;;;;7394763;19;20151;-82
2023/06/05 11:45:56;;;;;;;2.58;2.20;;;26.70;69.20;;;;;;7392021;19;20165;-83
2023/06/05 11:48:22;;;;;;;5.13;2.60;;;26.70;68.20;;;;;;7393280;19;20131;-82
2023/06/05 11:50:52;;;;;;;4.38;2.47;;;26.60;68.20;;;;;;7394461;19;20125;-85
2023/06/05 11:53:18;;;;;;;4.25;2.38;;;26.60;68.40;;;;;;7396365;19;20131;-84
2023/06/05 11:55:55;;;;;;;3.20;2.20;;;26.60;67.90;;;;;;7397155;19;20254;-83
2023/06/05 11:58:25;;;;;;;2.63;2.28;;;26.30;67.90;;;;;;7400918;19;20305;-82
2023/06/05 12:00:52;;;;;;;4.68;2.60;;;26.30;68.60;;;;;;7409803;19;20139;-83
2023/06/05 12:03:19;;;;;;;2.85;2.28;;;26.30;68.20;;;;;;7409830;19;20539;-80
2023/06/05 12:05:45;;;;;;;2.97;2.22;;;26.30;69.10;;;;;;7405676;19;20134;-78
2023/06/05 12:08:33;;;;;;;3.75;2.33;;;26.30;68.30;;;;;;7410071;19;20155;-80
2023/06/05 12:11:00;;;;;;;4.18;3.03;;;26.30;69.10;;;;;;7399213;19;20623;-79
2023/06/05 12:13:46;;;;;;;3.58;2.50;;;26.40;69.60;;;;;;7393398;19;20147;-77
2023/06/05 12:16:12;;;;;;;2.92;2.63;;;26.50;68.80;;;;;;7400226;19;20143;-78
2023/06/05 12:18:38;;;;;;;3.10;2.45;;;26.30;67.90;;;;;;7393282;19;20166;-79
2023/06/05 12:21:06;;;;;;;3.03;2.30;;;26.00;69.30;;;;;;7391271;19;20135;-78
2023/06/05 12:23:32;;;;;;;2.92;2.13;;;25.90;67.70;;;;;;7390711;19;20465;-78
2023/06/05 12:26:01;;;;;;;3.42;2.17;;;25.80;68.10;;;;;;7390068;19;20157;-79
2023/06/05 12:28:27;;;;;;;4.03;2.25;;;25.80;68.20;;;;;;7392308;19;20142;-77
2023/06/05 12:30:53;;;;;;;4.72;2.70;;;25.90;68.00;;;;;;7392483;19;20155;-76
2023/06/05 12:33:19;;;;;;;4.80;2.47;;;26.00;68.90;;;;;;7392703;19;20161;-75
2023/06/05 12:35:46;;;;;;;4.35;2.65;;;26.00;66.80;;;;;;7389335;19;20605;-75
2023/06/05 12:38:13;;;;;;;4.45;3.35;;;26.10;68.80;;;;;;7395649;19;20134;-78
2023/06/05 12:40:39;;;;;;;2.97;2.47;;;26.50;66.70;;;;;;7389273;19;20314;-79
2023/06/05 12:43:17;;;;;;;3.20;2.42;;;26.60;66.50;;;;;;7390097;19;20171;-77
2023/06/05 12:45:44;;;;;;;5.57;2.53;;;26.50;66.80;;;;;;7392101;19;20218;-77
2023/06/05 12:48:10;;;;;;;4.13;2.75;;;26.50;65.40;;;;;;7391062;19;20143;-78
2023/06/05 12:50:35;;;;;;;3.72;2.80;;;26.50;65.20;;;;;;7391506;19;20134;-78
2023/06/05 12:53:01;;;;;;;3.72;2.28;;;26.60;66.00;;;;;;7391251;19;20219;-78
2023/06/05 12:55:27;;;;;;;4.40;2.55;;;26.70;65.00;;;;;;7395368;19;20139;-76